Have a Safe July 4th! 

Flight Track Log - Related Links

Times and Time Zones

All times are in EDT time to prevent confusion due to time zone crossing. See the ASQ5750 flight status page for this flight to view local times or setup timezone preferences in your user account.

Time Position Orientation Groundspeed Altitude Reporting Facility
EDT Latitude Longitude Course Direction KTS MPH feet Rate Location/Type
Sat 11:36:08 AM 42.8336 -73.8331 345° North 233 268 3,800  Level Boston Center
Sat 11:37:08 AM 42.8767 -73.8992 312° West 287 330 5,100 2,250 Climbing Boston Center
Sat 11:38:08 AM 42.9339 -73.9914 310° West 293 337 8,300 2,800 Climbing Boston Center
Sat 11:39:08 AM 42.9808 -74.0606 313° West 286 329 10,700 2,050 Climbing Boston Center
Sat 11:40:08 AM 43.0481 -74.1619 312° West 304 350 12,400 1,700 Climbing Boston Center
Sat 11:41:08 AM 43.0586 -74.2814 277° West 323 372 14,100 1,800 Climbing Boston Center
Sat 11:42:08 AM 43.0686 -74.4353 275° West 356 410 16,000 1,600 Climbing Boston Center
Sat 11:43:08 AM 43.0747 -74.5606 274° West 370 426 17,300 1,200 Climbing Boston Center
Sat 11:44:08 AM 43.0842 -74.7231 275° West 385 443 18,400 1,100 Climbing Boston Center
Sat 11:45:08 AM 43.0939 -74.8569 276° West 391 450 19,500 1,100 Climbing Boston Center
Sat 11:46:08 AM 43.1031 -75.0108 275° West 398 458 20,600 1,000 Climbing Boston Center
Sat 11:47:08 AM 43.1083 -75.1364 273° West 403 464 21,500 1,100 Climbing Boston Center
Sat 11:48:08 AM 43.1183 -75.3244 274° West 413 475 22,800 1,050 Climbing Boston Center
Sat 11:49:08 AM 43.1269 -75.4814 274° West 413 475 23,600 700 Climbing Boston Center
Sat 11:50:08 AM 43.1336 -75.6097 274° West 419 482 24,200 750 Climbing Boston Center
Sat 11:51:08 AM 43.1428 -75.8039 274° West 424 488 25,100 800 Climbing Boston Center
Sat 11:52:08 AM 43.1525 -75.9639 275° West 429 494 25,800 671 Climbing Boston Center
Sat 11:53:40 AM 43.1500 -76.2000 269° West 430 495 26,800 568 Climbing Toronto Center
Sat 11:54:36 AM 43.1608 -76.3706 275° West 441 507 27,200 466 Climbing Cleveland Center
Sat 11:55:36 AM 43.1606 -76.5356 270° West 441 507 27,700 550 Climbing Cleveland Center
Sat 11:56:36 AM 43.1606 -76.7206 270° West 441 507 28,300 550 Climbing Cleveland Center
Sat 11:57:36 AM 43.1578 -76.8917 269° West 441 507 28,800 500 Climbing Cleveland Center
Sat 11:58:36 AM 43.1589 -77.0539 271° West 441 507 29,300 500 Climbing Cleveland Center
Sat 11:59:36 AM 43.1575 -77.2219 269° West 441 507 29,800 500 Climbing Cleveland Center
Sat 12:00:36 PM 43.1558 -77.3872 269° West 441 507 30,300 500 Climbing Cleveland Center
Sat 12:01:36 PM 43.1542 -77.5522 269° West 441 507 30,800 500 Climbing Cleveland Center
Sat 12:02:36 PM 43.1522 -77.7175 269° West 441 507 31,300 500 Climbing Cleveland Center
Sat 12:03:36 PM 43.1497 -77.8797 269° West 441 507 31,800 350 Climbing Cleveland Center
Sat 12:04:36 PM 43.1494 -78.0478 270° West 436 502 32,000 100 Climbing Cleveland Center
Sat 12:05:36 PM 43.1467 -78.2100 269° West 441 507 32,000  Level Cleveland Center
Sat 12:06:36 PM 43.1414 -78.3753 268° West 441 507 32,000  Level Cleveland Center
Sat 12:07:36 PM 43.1383 -78.5461 269° West 441 507 32,000  Level Cleveland Center
Sat 12:08:36 PM 43.1328 -78.7142 267° West 447 514 32,000  Level Cleveland Center
Sat 12:09:36 PM 43.1292 -78.8878 268° West 447 514 32,000  Level Cleveland Center
Sat 12:10:40 PM 43.1167 -79.0667 265° West 450 518 32,000  Level Toronto Center
Sat 12:11:40 PM 43.1000 -79.2167 261° West 450 518 32,000  Level Toronto Center
Sat 12:12:40 PM 43.1000 -79.4000 270° West 450 518 32,000  Level Toronto Center
Sat 12:13:40 PM 43.1000 -79.5667 270° West 450 518 32,000  Level Toronto Center
Sat 12:14:40 PM 43.0833 -79.7167 261° West 450 518 32,000  Level Toronto Center
Sat 12:15:40 PM 43.0833 -79.9000 270° West 460 529 32,000  Level Toronto Center
Sat 12:16:40 PM 43.0833 -80.0833 270° West 460 529 32,000  Level Toronto Center
Sat 12:17:40 PM 43.0833 -80.2500 270° West 460 529 32,000  Level Toronto Center
Sat 12:18:40 PM 43.0833 -80.4333 270° West 460 529 32,000  Level Toronto Center
Sat 12:19:40 PM 43.0833 -80.6167 270° West 460 529 32,000  Level Toronto Center
Sat 12:20:40 PM 43.0667 -80.8000 263° West 460 529 32,000  Level Toronto Center
Sat 12:21:40 PM 43.0500 -80.9500 261° West 460 529 32,000  Level Toronto Center
Sat 12:22:40 PM 43.0500 -81.1333 270° West 460 529 32,000  Level Toronto Center
Sat 12:23:40 PM 43.0500 -81.3000 270° West 460 529 32,000  Level Toronto Center
Sat 12:24:40 PM 43.0500 -81.4833 270° West 460 529 32,000  Level Toronto Center
Sat 12:25:40 PM 43.0500 -81.6667 270° West 460 529 32,000  Level Toronto Center
Sat 12:26:40 PM 43.0333 -81.8167 261° West 450 518 32,000  Level Toronto Center
Sat 12:27:40 PM 43.0167 -82.0000 263° West 450 518 32,000  Level Toronto Center
Sat 12:28:40 PM 43.0167 -82.1667 270° West 450 518 32,000  Level Toronto Center
Sat 12:29:40 PM 43.0167 -82.3167 270° West 450 518 32,000  Level Toronto Center
Sat 12:30:40 PM 43.0167 -82.5000 270° West 450 518 32,000  Level Toronto Center
Sat 12:31:40 PM 43.0000 -82.6667 262° West 450 518 32,000  Level Toronto Center
Sat 12:32:00 PM 43.0131 -82.7411 284° West 456 525 32,000  Level Cleveland Center
Sat 12:33:00 PM 43.0056 -82.9169 267° West 461 531 32,000  Level Cleveland Center
Sat 12:34:00 PM 42.9978 -83.0869 266° West 461 531 32,000  Level Cleveland Center
Sat 12:35:00 PM 42.9878 -83.2539 265° West 456 525 32,000  Level Cleveland Center
Sat 12:36:00 PM 42.9817 -83.4242 267° West 456 525 32,000  Level Cleveland Center
Sat 12:37:00 PM 42.9731 -83.5997 266° West 462 532 32,000  Level Cleveland Center
Sat 12:38:00 PM 42.9644 -83.7694 266° West 457 526 32,000  Level Cleveland Center
Sat 12:39:00 PM 42.9469 -83.9417 262° West 457 526 32,000  Level Cleveland Center
Sat 12:40:00 PM 42.9292 -84.1164 262° West 463 533 32,000  Level Cleveland Center
Sat 12:41:00 PM 42.9114 -84.2856 262° West 463 533 32,000  Level Cleveland Center
Sat 12:42:15 PM 42.8936 -84.4953 263° West 460 529 32,000  Level Chicago Center
Sat 12:43:17 PM 42.8761 -84.6686 262° West 462 532 32,000  Level Chicago Center
Sat 12:44:19 PM 42.8575 -84.8408 262° West 462 532 32,000  Level Chicago Center
Sat 12:45:21 PM 42.8389 -85.0144 262° West 463 533 32,000  Level Chicago Center
Sat 12:46:23 PM 42.8211 -85.1875 262° West 463 533 32,000  Level Chicago Center
Sat 12:47:24 PM 42.8014 -85.3606 261° West 462 532 32,000 -732 Level Chicago Center
Sat 12:48:26 PM 42.7800 -85.5367 261° West 469 540 30,500 -2,146 Descending Chicago Center
Sat 12:49:27 PM 42.7431 -85.7403 256° West 462 532 27,600 -2,537 Descending Chicago Center
Sat 12:50:29 PM 42.7136 -85.9008 256° West 441 507 25,300 -2,274 Descending Chicago Center
Sat 12:51:31 PM 42.6861 -86.0556 256° West 422 486 22,900 -2,195 Descending Chicago Center
Sat 12:52:32 PM 42.6575 -86.2117 256° West 422 486 20,800 -1,415 Descending Chicago Center
Sat 12:53:34 PM 42.6269 -86.3669 255° West 423 487 20,000 -387 Descending Chicago Center
Sat 12:54:36 PM 42.5986 -86.5206 256° West 420 483 20,000 -774 Level Chicago Center
Sat 12:55:38 PM 42.5703 -86.6744 256° West 422 486 18,400 -1,707 Descending Chicago Center
Sat 12:56:39 PM 42.5367 -86.8186 252° West 402 463 16,500 -1,805 Descending Chicago Center
Sat 12:57:41 PM 42.4994 -86.9525 249° West 384 442 14,700 -1,935 Descending Chicago Center
Sat 12:58:43 PM 42.4544 -87.1047 248° West 367 422 12,500 -1,805 Descending Chicago Center
Sat 12:59:44 PM 42.4200 -87.2339 250° West 366 421 11,000 -732 Descending Chicago Center
Sat 01:00:46 PM 42.3856 -87.3597 250° West 360 414 11,000  Level Chicago Center
Sat 01:01:48 PM 42.3511 -87.4853 250° West 358 412 11,000  Level Chicago Center
Sat 01:02:49 PM 42.2969 -87.5769 231° Southwest 325 374 11,000 -341 Level Chicago Center
Sat 01:03:51 PM 42.2317 -87.6464 218° Southwest 302 348 10,300 -1,210 Descending Chicago Center
Sat 01:04:53 PM 42.1561 -87.7283 219° Southwest 289 333 8,500 -1,705 Descending Chicago Center
Sat 01:05:26 PM 42.1167 -87.7667 216° Southwest 279 321 7,600 -968 Descending Chicago TRACON
Sat 01:06:26 PM 42.0667 -87.8333 225° Southwest 282 325 7,000 -263 Descending Chicago TRACON
Sat 01:07:20 PM 42.0833 -87.9333 283° West 301 346 7,100 -158 Climbing Chicago TRACON
Sat 01:08:20 PM 42.1000 -88.0333 283° West 260 299 6,700 -843 Descending Chicago TRACON
Sat 01:09:21 PM 42.1000 -88.1333 270° West 251 289 5,400 -1,188 Descending Chicago TRACON
Sat 01:10:01 PM 42.0883 -88.1767 250° West 260 299 4,700 -765 Descending Chicago Center
Sat 01:11:03 PM 42.0250 -88.1808 183° South 211 243 4,100 -732 Descending Chicago Center
Sat 01:12:04 PM 41.9961 -88.1192 122° Southeast 202 232 3,200 -780 Descending Chicago Center
Sat 01:13:06 PM 41.9831 -88.0506 104° East 196 226 2,500 -677 Descending Chicago Center
Sat 01:14:08 PM 41.9836 -87.9911 89° East 175 201 1,800 -532 Descending Chicago Center
Sat 01:15:10 PM 41.9850 -87.9300 88° East 165 190 1,400 -387 Descending Chicago Center

Login

Don't have an account? Register now (free) for customized features, flight alerts, and more!